createdAt,value
2018-07-02T00:00:31.336Z,14.72
2018-07-02T00:03:00.464Z,14.69
2018-07-02T00:05:46.520Z,14.67
2018-07-02T00:08:15.662Z,14.55
2018-07-02T00:10:44.823Z,14.56
2018-07-02T00:13:13.963Z,14.49
2018-07-02T00:15:43.095Z,14.42
2018-07-02T00:18:12.269Z,14.42
2018-07-02T00:20:41.411Z,14.36
2018-07-02T00:23:10.547Z,14.35
2018-07-02T00:25:39.696Z,14.32
2018-07-02T00:28:08.844Z,14.22
2018-07-02T00:30:37.985Z,14.16
2018-07-02T00:33:07.134Z,14.10
2018-07-02T00:35:36.269Z,14.12
2018-07-02T00:38:05.439Z,14.08
2018-07-02T00:40:34.579Z,14.04
2018-07-02T00:43:03.749Z,13.97
2018-07-02T00:45:32.879Z,13.84
2018-07-02T00:48:02.020Z,13.83
2018-07-02T00:50:31.176Z,13.92
2018-07-02T00:53:00.318Z,13.81
2018-07-02T00:55:29.462Z,13.81
2018-07-02T00:57:58.599Z,13.81
2018-07-02T01:00:27.757Z,13.75
2018-07-02T01:02:56.886Z,13.66
2018-07-02T01:05:26.030Z,13.62
2018-07-02T01:07:55.178Z,13.65
2018-07-02T01:10:24.340Z,13.68
2018-07-02T01:12:53.479Z,13.59
2018-07-02T01:15:22.614Z,13.52
2018-07-02T01:17:51.764Z,13.50
2018-07-02T01:20:20.908Z,13.49
2018-07-02T01:22:50.052Z,13.45
2018-07-02T01:25:19.202Z,13.41
2018-07-02T01:27:48.343Z,13.41
2018-07-02T01:30:17.485Z,13.41
2018-07-02T01:32:46.614Z,13.33
2018-07-02T01:35:15.772Z,13.31
2018-07-02T01:37:44.921Z,13.24
2018-07-02T01:40:14.061Z,13.19
2018-07-02T01:42:43.208Z,13.18
2018-07-02T01:45:12.362Z,13.16
2018-07-02T01:47:41.500Z,13.14
2018-07-02T01:50:10.665Z,13.06
2018-07-02T01:52:39.806Z,13.05
2018-07-02T01:55:08.952Z,13.05
2018-07-02T01:57:38.091Z,13.04
2018-07-02T02:00:07.252Z,12.97
2018-07-02T02:02:36.404Z,12.97
2018-07-02T02:05:05.595Z,12.98
2018-07-02T02:07:34.732Z,12.91
2018-07-02T02:10:03.888Z,12.91
2018-07-02T02:12:33.003Z,12.90
2018-07-02T02:15:02.117Z,12.75
2018-07-02T02:17:31.248Z,12.70
2018-07-02T02:20:00.369Z,12.60
2018-07-02T02:22:29.500Z,12.53
2018-07-02T02:24:58.623Z,12.40
2018-07-02T02:27:27.739Z,12.35
2018-07-02T02:29:56.956Z,12.22
2018-07-02T02:32:26.079Z,12.19
2018-07-02T02:34:55.201Z,12.23
2018-07-02T02:37:24.342Z,12.17
2018-07-02T02:39:53.481Z,12.11
2018-07-02T02:42:22.605Z,12.16
2018-07-02T02:44:51.740Z,12.23
2018-07-02T02:47:20.856Z,12.20
2018-07-02T02:49:49.982Z,12.21
2018-07-02T02:52:19.120Z,12.19
2018-07-02T02:54:48.228Z,12.22
2018-07-02T02:57:17.375Z,12.26
2018-07-02T02:59:46.491Z,12.32
2018-07-02T03:02:15.620Z,12.35
2018-07-02T03:04:44.739Z,12.32
2018-07-02T03:07:13.879Z,12.23
2018-07-02T03:09:42.997Z,12.26
2018-07-02T03:12:12.132Z,12.20
2018-07-02T03:14:41.264Z,12.17
2018-07-02T03:17:10.400Z,12.20
2018-07-02T03:19:39.524Z,12.21
2018-07-02T03:22:08.859Z,12.23
2018-07-02T03:24:37.926Z,12.20
2018-07-02T03:27:07.039Z,12.16
2018-07-02T03:29:36.179Z,12.14
2018-07-02T03:32:05.308Z,12.07
2018-07-02T03:34:34.418Z,12.07
2018-07-02T03:37:03.543Z,12.11
2018-07-02T03:39:32.662Z,12.04
2018-07-02T03:42:01.762Z,12.11
2018-07-02T03:44:30.883Z,12.14
2018-07-02T03:47:00.001Z,12.12
2018-07-02T03:49:29.128Z,12.18
2018-07-02T03:51:58.265Z,12.17
2018-07-02T03:54:27.376Z,12.16
2018-07-02T03:56:56.497Z,12.17
2018-07-02T03:59:25.639Z,12.18
2018-07-02T04:01:54.784Z,12.18
2018-07-02T04:04:23.898Z,12.23
2018-07-02T04:06:53.010Z,12.28
2018-07-02T04:09:22.167Z,12.36
2018-07-02T04:11:51.310Z,12.43
2018-07-02T04:14:20.455Z,12.46
2018-07-02T04:16:49.595Z,12.50
2018-07-02T04:19:18.735Z,12.53
2018-07-02T04:21:47.888Z,12.68
2018-07-02T04:24:17.031Z,12.68
2018-07-02T04:26:46.173Z,12.68
2018-07-02T04:29:15.326Z,12.75
2018-07-02T04:31:44.647Z,12.78
2018-07-02T04:34:13.816Z,12.78
2018-07-02T04:36:42.946Z,12.98
2018-07-02T04:39:12.100Z,12.92
2018-07-02T04:41:41.259Z,12.98
2018-07-02T04:44:10.400Z,12.96
2018-07-02T04:46:39.584Z,13.05
2018-07-02T04:49:08.723Z,13.15
2018-07-02T04:51:37.867Z,13.21
2018-07-02T04:54:07.024Z,13.39
2018-07-02T04:56:36.167Z,13.42
2018-07-02T04:59:05.371Z,13.66
2018-07-02T05:01:34.504Z,14.09
2018-07-02T05:04:03.619Z,14.02
2018-07-02T05:06:32.748Z,13.93
2018-07-02T05:09:01.842Z,13.91
2018-07-02T05:11:31.048Z,14.17
2018-07-02T05:14:00.165Z,14.39
2018-07-02T05:16:29.276Z,14.24
2018-07-02T05:18:58.391Z,14.27
2018-07-02T05:21:27.505Z,14.33
2018-07-02T05:23:56.618Z,14.40
2018-07-02T05:26:25.744Z,14.46
2018-07-02T05:28:55.017Z,14.24
2018-07-02T05:31:24.232Z,14.32
2018-07-02T05:33:53.280Z,14.50
2018-07-02T05:36:22.387Z,14.56
2018-07-02T05:38:51.520Z,14.61
2018-07-02T05:41:20.664Z,14.83
2018-07-02T05:43:49.783Z,14.93
2018-07-02T05:46:18.887Z,15.00
2018-07-02T05:48:48.312Z,14.89
2018-07-02T05:51:17.449Z,14.73
2018-07-02T05:53:46.562Z,14.59
2018-07-02T05:56:15.670Z,14.66
2018-07-02T05:58:44.797Z,14.71
2018-07-02T06:01:13.891Z,14.76
2018-07-02T06:03:43.002Z,14.79
2018-07-02T06:06:12.116Z,14.83
2018-07-02T06:08:41.236Z,14.93
2018-07-02T06:11:10.343Z,14.95
2018-07-02T06:13:39.480Z,15.06
2018-07-02T06:16:08.589Z,15.11
2018-07-02T06:18:37.712Z,15.27
2018-07-02T06:21:09.808Z,15.37
2018-07-02T06:23:38.939Z,15.48
2018-07-02T06:26:08.057Z,15.43
2018-07-02T06:28:37.178Z,15.47
2018-07-02T06:31:06.305Z,15.54
2018-07-02T06:33:35.430Z,15.69
2018-07-02T06:36:04.553Z,15.80
2018-07-02T06:38:33.672Z,16.07
2018-07-02T06:41:02.792Z,16.11
2018-07-02T06:43:31.917Z,16.02
2018-07-02T06:46:01.040Z,16.13
2018-07-02T06:48:30.201Z,16.32
2018-07-02T06:50:59.333Z,16.60
2018-07-02T06:53:28.478Z,16.48
2018-07-02T06:55:57.602Z,16.26
2018-07-02T06:58:26.753Z,16.54
2018-07-02T07:00:55.911Z,16.89
2018-07-02T07:03:25.016Z,17.03
2018-07-02T07:05:54.185Z,17.27
2018-07-02T07:08:23.322Z,17.27
2018-07-02T07:10:52.450Z,17.36
2018-07-02T07:13:21.566Z,17.49
2018-07-02T07:15:50.702Z,17.31
2018-07-02T07:18:19.829Z,17.58
2018-07-02T07:20:48.955Z,17.85
2018-07-02T07:23:18.076Z,17.81
2018-07-02T07:25:47.223Z,17.74
2018-07-02T07:28:16.315Z,17.96
2018-07-02T07:30:45.581Z,18.05
2018-07-02T07:33:14.663Z,18.24
2018-07-02T07:35:43.796Z,18.19
2018-07-02T07:38:12.910Z,18.43
2018-07-02T07:40:42.040Z,18.33
2018-07-02T07:43:11.160Z,18.13
2018-07-02T07:45:40.280Z,18.36
2018-07-02T07:48:09.445Z,18.95
2018-07-02T07:50:38.566Z,19.37
2018-07-02T07:53:07.752Z,19.01
2018-07-02T07:55:36.828Z,19.23
2018-07-02T07:58:06.024Z,18.78
2018-07-02T08:00:35.142Z,19.20
2018-07-02T08:03:04.277Z,18.82
2018-07-02T08:05:33.404Z,19.02
2018-07-02T08:08:02.559Z,19.33
2018-07-02T08:10:31.720Z,19.52
2018-07-02T08:13:00.852Z,19.82
2018-07-02T08:15:29.999Z,19.81
2018-07-02T08:17:59.157Z,19.72
2018-07-02T08:20:28.320Z,20.00
2018-07-02T08:22:57.468Z,20.20
2018-07-02T08:25:26.638Z,20.29
2018-07-02T08:27:55.884Z,20.01
2018-07-02T08:30:25.037Z,19.99
2018-07-02T08:32:54.226Z,19.95
2018-07-02T08:35:23.347Z,20.07
2018-07-02T08:37:52.503Z,20.81
2018-07-02T08:40:21.719Z,20.97
2018-07-02T08:42:50.858Z,20.36
2018-07-02T08:45:19.995Z,20.38
2018-07-02T08:47:49.141Z,20.57
2018-07-02T08:50:18.307Z,20.69
2018-07-02T08:52:47.487Z,20.68
2018-07-02T08:55:16.624Z,20.87
2018-07-02T08:57:45.788Z,20.96
2018-07-02T09:00:14.926Z,20.72
2018-07-02T09:02:44.076Z,21.05
2018-07-02T09:05:13.211Z,20.92
2018-07-02T09:07:42.351Z,20.95
2018-07-02T09:10:11.475Z,20.87
2018-07-02T09:12:40.603Z,21.10
2018-07-02T09:15:09.715Z,20.79
2018-07-02T09:17:38.903Z,20.91
2018-07-02T09:20:07.973Z,20.75
2018-07-02T09:22:37.299Z,21.18
2018-07-02T09:25:06.411Z,21.81
2018-07-02T09:27:35.540Z,21.51
2018-07-02T09:30:05.058Z,21.95
2018-07-02T09:32:34.199Z,22.10
2018-07-02T09:35:03.301Z,22.11
2018-07-02T09:37:32.435Z,22.25
2018-07-02T09:40:01.569Z,22.38
2018-07-02T09:42:30.701Z,22.01
2018-07-02T09:44:59.850Z,22.48
2018-07-02T09:47:29.050Z,22.22
2018-07-02T09:49:58.163Z,21.88
2018-07-02T09:52:27.276Z,21.86
2018-07-02T09:54:56.405Z,22.53
2018-07-02T09:57:25.529Z,22.13
2018-07-02T09:59:54.679Z,22.13
2018-07-02T10:02:23.824Z,22.83
2018-07-02T10:04:53.362Z,23.14
2018-07-02T10:07:22.519Z,22.73
2018-07-02T10:09:51.667Z,22.70
2018-07-02T10:12:20.807Z,23.08
2018-07-02T10:14:50.769Z,22.03
2018-07-02T10:17:19.884Z,22.29
2018-07-02T10:19:49.026Z,22.32
2018-07-02T10:22:18.133Z,22.84
2018-07-02T10:24:47.252Z,22.79
2018-07-02T10:27:16.402Z,23.50
2018-07-02T10:29:45.541Z,23.24
2018-07-02T10:32:14.672Z,23.44
2018-07-02T10:34:43.829Z,23.67
2018-07-02T10:37:12.917Z,23.30
2018-07-02T10:39:42.058Z,23.35
2018-07-02T10:42:11.176Z,23.24
2018-07-02T10:44:40.291Z,24.18
2018-07-02T10:47:09.406Z,23.84
2018-07-02T10:49:38.566Z,24.15
2018-07-02T10:52:07.680Z,24.42
2018-07-02T10:54:36.815Z,23.88
2018-07-02T10:57:05.934Z,23.58
2018-07-02T10:59:35.089Z,23.18
2018-07-02T11:02:04.225Z,23.80
2018-07-02T11:04:33.374Z,23.52
2018-07-02T11:07:02.516Z,23.20
2018-07-02T11:09:31.634Z,23.96
2018-07-02T11:12:00.761Z,24.76
2018-07-02T11:14:29.879Z,24.69
2018-07-02T11:16:59.009Z,24.47
2018-07-02T11:19:28.495Z,24.02
2018-07-02T11:21:57.634Z,24.49
2018-07-02T11:24:26.747Z,24.12
2018-07-02T11:26:55.865Z,25.23
2018-07-02T11:29:24.970Z,26.22
2018-07-02T11:31:54.089Z,25.18
2018-07-02T11:34:23.194Z,25.82
2018-07-02T11:36:52.311Z,25.36
2018-07-02T11:39:21.418Z,25.47
2018-07-02T11:41:50.538Z,24.77
2018-07-02T11:44:19.664Z,24.81
2018-07-02T11:46:48.798Z,26.31
2018-07-02T11:49:17.910Z,26.02
2018-07-02T11:51:47.024Z,26.84
2018-07-02T11:54:16.137Z,27.92
2018-07-02T11:56:45.281Z,25.65
2018-07-02T11:59:14.464Z,25.42
2018-07-02T12:01:43.588Z,26.56
2018-07-02T12:04:12.762Z,26.76
2018-07-02T12:06:41.850Z,27.43
2018-07-02T12:09:11.845Z,26.45
2018-07-02T12:11:41.273Z,26.47
2018-07-02T12:14:10.392Z,26.52
2018-07-02T12:16:39.513Z,27.66
2018-07-02T12:19:08.641Z,26.97
2018-07-02T12:21:37.752Z,27.64
2018-07-02T12:24:06.872Z,28.00
2018-07-02T12:26:35.975Z,27.33
2018-07-02T12:29:05.100Z,28.50
2018-07-02T12:31:34.208Z,27.63
2018-07-02T12:34:03.333Z,27.12
2018-07-02T12:36:32.430Z,27.89
2018-07-02T12:39:01.555Z,27.81
2018-07-02T12:41:30.677Z,27.52
2018-07-02T12:43:59.792Z,27.79
2018-07-02T12:46:28.905Z,28.97
2018-07-02T12:48:58.028Z,29.34
2018-07-02T12:51:27.167Z,28.45
2018-07-02T12:53:56.284Z,28.31
2018-07-02T12:56:25.423Z,28.14
2018-07-02T12:58:54.572Z,28.86
2018-07-02T13:01:23.700Z,28.01
2018-07-02T13:03:52.822Z,28.50
2018-07-02T13:06:21.933Z,28.83
2018-07-02T13:08:51.100Z,29.10
2018-07-02T13:11:20.231Z,29.29
2018-07-02T13:13:49.380Z,29.11
2018-07-02T13:16:18.526Z,29.40
2018-07-02T13:18:47.643Z,29.05
2018-07-02T13:21:16.788Z,29.81
2018-07-02T13:23:45.935Z,29.26
2018-07-02T13:26:15.081Z,29.55
2018-07-02T13:28:44.224Z,30.49
2018-07-02T13:31:13.368Z,29.62
2018-07-02T13:33:42.511Z,30.51
2018-07-02T13:36:11.695Z,29.89
2018-07-02T13:38:40.795Z,29.29
2018-07-02T13:41:09.939Z,29.24
2018-07-02T13:43:39.071Z,29.30
2018-07-02T13:46:08.245Z,30.52
2018-07-02T13:48:37.370Z,30.01
2018-07-02T13:51:06.557Z,30.45
2018-07-02T13:53:35.674Z,30.18
2018-07-02T13:56:04.828Z,30.05
2018-07-02T13:58:33.961Z,29.68
2018-07-02T14:01:03.105Z,30.58
2018-07-02T14:03:32.238Z,30.81
2018-07-02T14:06:01.404Z,30.21
2018-07-02T14:08:30.551Z,30.11
2018-07-02T14:10:59.696Z,30.42
2018-07-02T14:13:28.841Z,29.13
2018-07-02T14:15:57.985Z,30.02
2018-07-02T14:18:27.133Z,29.01
2018-07-02T14:20:56.266Z,29.86
2018-07-02T14:23:25.419Z,29.89
2018-07-02T14:25:54.543Z,30.34
2018-07-02T14:28:23.699Z,31.28
2018-07-02T14:30:52.840Z,30.08
2018-07-02T14:33:21.987Z,31.02
2018-07-02T14:35:51.125Z,30.48
2018-07-02T14:38:20.269Z,30.81
2018-07-02T14:40:49.406Z,31.68
2018-07-02T14:43:18.561Z,31.82
2018-07-02T14:45:47.697Z,30.32
2018-07-02T14:48:16.849Z,29.64
2018-07-02T14:50:45.981Z,31.57
2018-07-02T14:53:15.114Z,30.31
2018-07-02T14:55:44.257Z,30.50
2018-07-02T14:58:13.388Z,30.63
2018-07-02T15:00:42.527Z,30.56
2018-07-02T15:03:11.664Z,31.72
2018-07-02T15:05:40.833Z,30.09
2018-07-02T15:08:09.976Z,29.32
2018-07-02T15:10:39.113Z,30.89
2018-07-02T15:13:08.251Z,31.34
2018-07-02T15:15:37.412Z,32.26
2018-07-02T15:18:06.620Z,31.28
2018-07-02T15:20:35.724Z,31.57
2018-07-02T15:23:04.907Z,30.96
2018-07-02T15:25:34.008Z,29.82
2018-07-02T15:28:03.143Z,30.59
2018-07-02T15:30:32.286Z,30.48
2018-07-02T15:33:01.416Z,32.07
2018-07-02T15:35:30.570Z,31.68
2018-07-02T15:37:59.721Z,32.18
2018-07-02T15:40:29.088Z,32.39
2018-07-02T15:42:58.223Z,32.50
2018-07-02T15:45:27.370Z,32.79
2018-07-02T15:47:56.512Z,32.87
2018-07-02T15:50:25.650Z,32.10
2018-07-02T15:52:55.423Z,32.22
2018-07-02T15:55:24.772Z,32.78
2018-07-02T15:57:53.710Z,31.33
2018-07-02T16:00:22.840Z,31.94
2018-07-02T16:02:51.980Z,31.05
2018-07-02T16:05:21.124Z,31.77
2018-07-02T16:07:50.267Z,30.83
2018-07-02T16:10:19.417Z,31.27
2018-07-02T16:12:48.559Z,32.57
2018-07-02T16:15:17.705Z,32.98
2018-07-02T16:17:46.864Z,32.95
2018-07-02T16:20:16.016Z,32.43
2018-07-02T16:22:45.194Z,32.64
2018-07-02T16:25:14.343Z,32.79
2018-07-02T16:27:43.489Z,31.52
2018-07-02T16:30:12.641Z,32.02
2018-07-02T16:32:41.783Z,30.70
2018-07-02T16:35:10.936Z,31.25
2018-07-02T16:37:40.068Z,31.43
2018-07-02T16:40:09.217Z,31.25
2018-07-02T16:42:38.374Z,32.36
2018-07-02T16:45:07.520Z,31.68
2018-07-02T16:47:36.671Z,32.15
2018-07-02T16:50:06.404Z,31.17
2018-07-02T16:52:35.684Z,30.73
2018-07-02T16:55:04.827Z,31.52
2018-07-02T16:57:33.980Z,31.63
2018-07-02T17:00:03.118Z,32.13
2018-07-02T17:02:32.282Z,32.10
2018-07-02T17:05:01.444Z,32.19
2018-07-02T17:07:30.679Z,31.59
2018-07-02T17:09:59.824Z,31.72
2018-07-02T17:12:28.987Z,30.55
2018-07-02T17:14:58.146Z,29.41
2018-07-02T17:17:27.309Z,30.17
2018-07-02T17:19:56.452Z,31.00
2018-07-02T17:22:25.650Z,31.47
2018-07-02T17:24:54.757Z,31.58
2018-07-02T17:27:23.902Z,31.39
2018-07-02T17:29:53.044Z,31.85
2018-07-02T17:32:22.197Z,32.20
2018-07-02T17:34:51.332Z,30.97
2018-07-02T17:37:20.546Z,31.27
2018-07-02T17:39:49.713Z,29.99
2018-07-02T17:42:18.854Z,30.63
2018-07-02T17:44:47.992Z,30.63
2018-07-02T17:47:17.154Z,31.21
2018-07-02T17:49:46.308Z,32.13
2018-07-02T17:52:15.460Z,30.43
2018-07-02T17:54:44.608Z,31.35
2018-07-02T17:57:13.792Z,30.99
2018-07-02T17:59:42.971Z,30.36
2018-07-02T18:02:12.109Z,31.75
2018-07-02T18:04:41.264Z,32.17
2018-07-02T18:07:10.419Z,29.94
2018-07-02T18:09:39.538Z,28.99
2018-07-02T18:12:08.674Z,29.54
2018-07-02T18:14:37.799Z,28.77
2018-07-02T18:17:07.023Z,26.83
2018-07-02T18:19:36.137Z,26.12
2018-07-02T18:22:05.407Z,25.36
2018-07-02T18:24:34.535Z,24.94
2018-07-02T18:27:03.672Z,24.90
2018-07-02T18:29:32.798Z,24.70
2018-07-02T18:32:01.924Z,24.22
2018-07-02T18:34:31.049Z,23.87
2018-07-02T18:37:00.157Z,23.77
2018-07-02T18:39:29.275Z,23.73
2018-07-02T18:41:58.409Z,23.58
2018-07-02T18:44:27.535Z,23.43
2018-07-02T18:46:56.674Z,23.27
2018-07-02T18:49:25.835Z,23.12
2018-07-02T18:51:54.986Z,23.02
2018-07-02T18:54:24.086Z,22.84
2018-07-02T18:56:53.206Z,22.65
2018-07-02T18:59:22.353Z,22.37
2018-07-02T19:01:51.522Z,22.34
2018-07-02T19:04:20.674Z,22.25
2018-07-02T19:06:49.841Z,22.20
2018-07-02T19:09:18.967Z,22.26
2018-07-02T19:11:48.102Z,22.02
2018-07-02T19:14:17.240Z,21.89
2018-07-02T19:16:46.439Z,21.87
2018-07-02T19:19:15.532Z,21.72
2018-07-02T19:21:44.651Z,21.54
2018-07-02T19:24:13.776Z,21.52
2018-07-02T19:26:42.902Z,21.33
2018-07-02T19:29:14.052Z,21.23
2018-07-02T19:31:43.231Z,21.22
2018-07-02T19:34:12.351Z,21.23
2018-07-02T19:36:41.475Z,21.21
2018-07-02T19:39:12.609Z,21.13
2018-07-02T19:41:41.731Z,21.11
2018-07-02T19:44:11.431Z,21.04
2018-07-02T19:46:40.679Z,21.08
2018-07-02T19:49:09.810Z,20.98
2018-07-02T19:51:38.965Z,20.93
2018-07-02T19:54:08.110Z,20.87
2018-07-02T19:56:37.309Z,20.71
2018-07-02T19:59:06.351Z,20.60
2018-07-02T20:01:35.483Z,20.52
2018-07-02T20:04:04.716Z,20.38
2018-07-02T20:06:33.876Z,20.33
2018-07-02T20:09:03.025Z,20.26
2018-07-02T20:11:32.167Z,20.22
2018-07-02T20:14:01.331Z,20.19
2018-07-02T20:16:30.483Z,20.13
2018-07-02T20:18:59.768Z,20.10
2018-07-02T20:21:28.865Z,20.05
2018-07-02T20:23:58.078Z,20.04
2018-07-02T20:26:27.258Z,20.07
2018-07-02T20:28:56.468Z,20.07
2018-07-02T20:31:25.631Z,19.99
2018-07-02T20:33:54.805Z,19.94
2018-07-02T20:36:24.048Z,19.86
2018-07-02T20:38:53.232Z,19.88
2018-07-02T20:41:22.423Z,19.89
2018-07-02T20:43:51.624Z,19.95
2018-07-02T20:46:20.766Z,19.79
2018-07-02T20:48:49.922Z,19.68
2018-07-02T20:51:19.063Z,19.66
2018-07-02T20:53:48.265Z,19.62
2018-07-02T20:56:17.460Z,19.59
2018-07-02T20:58:46.608Z,19.52
2018-07-02T21:01:15.868Z,19.44
2018-07-02T21:03:45.023Z,19.53
2018-07-02T21:06:14.188Z,19.52
2018-07-02T21:08:43.351Z,19.52
2018-07-02T21:11:12.495Z,19.52
2018-07-02T21:13:41.647Z,19.58
2018-07-02T21:16:10.829Z,19.48
2018-07-02T21:18:40.016Z,19.50
2018-07-02T21:21:09.182Z,19.39
2018-07-02T21:23:38.471Z,19.46
2018-07-02T21:26:07.612Z,19.62
2018-07-02T21:28:36.773Z,19.54
2018-07-02T21:31:05.919Z,19.41
2018-07-02T21:33:35.094Z,19.44
2018-07-02T21:36:05.021Z,19.45
2018-07-02T21:38:34.159Z,19.43
2018-07-02T21:41:03.486Z,19.55
2018-07-02T21:43:32.699Z,19.54
2018-07-02T21:46:01.883Z,19.45
2018-07-02T21:48:31.196Z,19.39
2018-07-02T21:51:00.344Z,19.28
2018-07-02T21:53:29.492Z,19.25
2018-07-02T21:55:58.646Z,19.31
2018-07-02T21:58:27.794Z,19.28
2018-07-02T22:00:57.014Z,19.15
2018-07-02T22:03:26.214Z,18.99
2018-07-02T22:05:55.509Z,19.25
2018-07-02T22:08:24.701Z,19.06
2018-07-02T22:10:53.863Z,18.95
2018-07-02T22:13:23.010Z,18.95
2018-07-02T22:15:52.247Z,18.88
2018-07-02T22:18:21.388Z,18.64
2018-07-02T22:20:50.557Z,18.73
2018-07-02T22:23:19.703Z,18.74
2018-07-02T22:25:48.865Z,18.70
2018-07-02T22:28:18.007Z,18.75
2018-07-02T22:30:47.147Z,18.67
2018-07-02T22:33:16.294Z,18.58
2018-07-02T22:35:45.448Z,18.53
2018-07-02T22:38:14.599Z,18.43
2018-07-02T22:40:43.753Z,18.40
2018-07-02T22:43:12.899Z,18.47
2018-07-02T22:45:42.038Z,18.40
2018-07-02T22:48:11.182Z,18.36
2018-07-02T22:50:40.322Z,18.29
2018-07-02T22:53:09.482Z,18.11
2018-07-02T22:55:55.568Z,17.96
2018-07-02T22:58:24.748Z,17.95
2018-07-02T23:00:53.885Z,17.89
2018-07-02T23:03:23.054Z,17.85
2018-07-02T23:05:52.247Z,17.83
2018-07-02T23:08:21.409Z,17.85
2018-07-02T23:10:50.577Z,17.75
2018-07-02T23:13:19.718Z,17.86
2018-07-02T23:15:48.899Z,17.86
2018-07-02T23:18:18.051Z,17.89
2018-07-02T23:20:47.190Z,17.72
2018-07-02T23:23:16.364Z,17.60
2018-07-02T23:25:45.506Z,17.52
2018-07-02T23:28:14.643Z,17.51
2018-07-02T23:30:43.795Z,17.44
2018-07-02T23:33:12.964Z,17.27
2018-07-02T23:35:42.116Z,17.23
2018-07-02T23:38:11.298Z,17.20
2018-07-02T23:40:40.430Z,17.12
2018-07-02T23:43:09.576Z,17.06
2018-07-02T23:45:38.750Z,17.03
2018-07-02T23:48:07.916Z,17.05
2018-07-02T23:50:37.051Z,17.02
2018-07-02T23:53:06.216Z,17.00
2018-07-02T23:55:35.372Z,16.85
2018-07-02T23:58:04.687Z,16.76
